Time;durP1;ratioP1;P1;durP2;ratioP2;P2;SDS_P1;SDS_P2;PMS_P1;PMS_P2;Temp;Humidity;BMP_temperature;BMP_pressure;BME280_temperature;BME280_humidity;BME280_pressure;Samples;Min_cycle;Max_cycle;Signal;HPM_P1;HPM_P2
2022/04/12 00:00:12;;;;;;;13.50;5.40;;;7.60;99.90;;;;;;5016611;28;20155;-67
2022/04/12 00:02:37;;;;;;;11.55;5.22;;;7.60;99.90;;;;;;5020045;28;21018;-68
2022/04/12 00:05:03;;;;;;;9.30;4.60;;;7.60;99.90;;;;;;5015868;28;20045;-67
2022/04/12 00:07:29;;;;;;;11.48;4.93;;;7.60;99.90;;;;;;5020931;28;20080;-67
2022/04/12 00:09:57;;;;;;;8.70;4.40;;;7.60;99.90;;;;;;5018525;28;20131;-67
2022/04/12 00:12:23;;;;;;;8.85;5.07;;;7.60;99.90;;;;;;5021585;28;20106;-67
2022/04/12 00:14:50;;;;;;;8.68;5.18;;;7.50;99.90;;;;;;5024415;28;20037;-66
2022/04/12 00:20:00;;;;;;;11.77;4.70;;;7.50;99.90;;;;;;5020974;28;20038;-67
2022/04/12 00:22:25;;;;;;;11.93;5.53;;;7.50;99.90;;;;;;5014850;28;20047;-68
2022/04/12 00:24:52;;;;;;;9.20;5.07;;;7.50;99.90;;;;;;5018407;28;20502;-67
2022/04/12 00:27:17;;;;;;;12.00;5.80;;;7.50;99.90;;;;;;5025235;28;20059;-67
2022/04/12 00:29:43;;;;;;;11.20;6.07;;;7.50;99.90;;;;;;5020552;28;20034;-67
2022/04/12 00:32:09;;;;;;;11.20;5.40;;;7.50;99.90;;;;;;5016667;28;20033;-67
2022/04/12 00:34:34;;;;;;;14.37;5.50;;;7.50;99.90;;;;;;5025500;28;20044;-67
2022/04/12 00:37:00;;;;;;;10.40;5.57;;;7.40;99.90;;;;;;5020598;28;20362;-67
2022/04/12 00:39:25;;;;;;;8.30;5.23;;;7.40;99.90;;;;;;5023416;28;20552;-67
2022/04/12 00:41:51;;;;;;;9.30;4.83;;;7.40;99.90;;;;;;5018596;28;20045;-67
2022/04/12 00:44:19;;;;;;;9.83;5.97;;;7.30;99.90;;;;;;5014510;28;20401;-67
2022/04/12 00:46:44;;;;;;;8.75;5.05;;;7.30;99.90;;;;;;5019129;28;20042;-67
2022/04/12 00:49:10;;;;;;;11.30;5.00;;;7.30;99.90;;;;;;5018661;28;20045;-66
2022/04/12 00:51:36;;;;;;;9.73;4.93;;;7.30;99.90;;;;;;5008575;28;20088;-66
2022/04/12 00:54:01;;;;;;;14.77;6.53;;;7.20;99.90;;;;;;5021387;28;20074;-67
2022/04/12 00:56:27;;;;;;;10.60;5.30;;;7.20;99.90;;;;;;5014330;28;20034;-68
2022/04/12 00:58:54;;;;;;;11.40;6.47;;;7.20;99.90;;;;;;5018330;28;20344;-67
2022/04/12 01:01:19;;;;;;;9.45;5.55;;;7.20;99.90;;;;;;5028527;28;20480;-67
2022/04/12 01:03:45;;;;;;;9.47;5.67;;;7.20;99.90;;;;;;5021672;28;20150;-67
2022/04/12 01:06:11;;;;;;;8.67;5.57;;;7.10;99.90;;;;;;5011912;28;20498;-67
2022/04/12 01:08:36;;;;;;;9.53;5.00;;;7.10;99.90;;;;;;5016963;28;20053;-67
2022/04/12 01:11:06;;;;;;;9.50;5.50;;;7.10;99.90;;;;;;5018279;28;20037;-67
2022/04/12 01:13:33;;;;;;;11.77;6.47;;;7.10;99.90;;;;;;5020414;28;20037;-67
2022/04/12 01:15:59;;;;;;;11.45;5.32;;;7.00;99.90;;;;;;5025648;28;20033;-67
2022/04/12 01:18:25;;;;;;;10.23;5.03;;;7.00;99.90;;;;;;5027354;28;20320;-67
2022/04/12 01:20:51;;;;;;;11.05;5.20;;;7.00;99.90;;;;;;5017907;28;20038;-67
2022/04/12 01:23:29;;;;;;;10.75;5.65;;;7.00;99.90;;;;;;5021436;28;20383;-67
2022/04/12 01:25:55;;;;;;;13.65;6.07;;;6.90;99.90;;;;;;5023305;28;20049;-67
2022/04/12 01:28:20;;;;;;;10.67;5.97;;;6.90;99.90;;;;;;5029172;28;22423;-68
2022/04/12 01:30:46;;;;;;;8.83;5.53;;;6.90;99.90;;;;;;5024088;28;20514;-67
2022/04/12 01:33:12;;;;;;;11.27;5.07;;;6.80;99.90;;;;;;5029920;28;20068;-67
2022/04/12 01:35:37;;;;;;;13.17;5.50;;;6.80;99.90;;;;;;5021819;28;20041;-67
2022/04/12 01:38:03;;;;;;;11.57;5.87;;;6.80;99.90;;;;;;5025375;28;20501;-67
2022/04/12 01:40:29;;;;;;;14.07;5.78;;;6.80;99.90;;;;;;5013871;28;20045;-68
2022/04/12 01:42:55;;;;;;;9.00;4.80;;;6.70;99.90;;;;;;5067870;22;20059;-84
2022/04/12 01:45:21;;;;;;;15.73;6.73;;;6.70;99.90;;;;;;5034061;28;20542;-84
2022/04/12 01:47:47;;;;;;;8.60;4.97;;;6.70;99.90;;;;;;5033321;28;20094;-85
2022/04/12 01:50:13;;;;;;;10.23;5.80;;;6.60;99.90;;;;;;5035255;28;20437;-85
2022/04/12 01:52:39;;;;;;;12.85;6.20;;;6.60;99.90;;;;;;5029241;28;20041;-84
2022/04/12 01:55:08;;;;;;;9.35;5.55;;;6.70;99.90;;;;;;5016892;28;20406;-84
2022/04/12 01:57:34;;;;;;;8.85;4.90;;;6.60;99.90;;;;;;5016811;28;20444;-85
2022/04/12 02:00:00;;;;;;;11.03;5.77;;;6.60;99.90;;;;;;5032323;28;20131;-84
2022/04/12 02:02:25;;;;;;;12.23;5.28;;;6.50;99.90;;;;;;5013864;28;20495;-84
2022/04/12 02:04:51;;;;;;;13.57;5.97;;;6.50;99.90;;;;;;5031409;28;20506;-82
2022/04/12 02:07:17;;;;;;;10.82;5.75;;;6.40;99.90;;;;;;5034900;28;20136;-86
2022/04/12 02:09:47;;;;;;;10.90;6.17;;;6.40;99.90;;;;;;5015355;28;20666;-85
2022/04/12 02:12:12;;;;;;;10.82;5.88;;;6.40;99.90;;;;;;5023606;28;20410;-84
2022/04/12 02:14:38;;;;;;;12.53;5.73;;;6.40;99.90;;;;;;5010346;28;20037;-84
2022/04/12 02:17:04;;;;;;;13.90;5.60;;;6.40;99.90;;;;;;5012692;28;20029;-84
2022/04/12 02:19:30;;;;;;;13.02;6.13;;;6.40;99.90;;;;;;5017166;28;20123;-84
2022/04/12 02:21:58;;;;;;;12.43;6.20;;;6.50;99.90;;;;;;5021125;28;20661;-85
2022/04/12 02:24:24;;;;;;;15.63;6.25;;;6.30;99.90;;;;;;5028832;28;20784;-86
2022/04/12 02:26:56;;;;;;;10.93;5.83;;;6.30;99.90;;;;;;5006352;28;20208;-88
2022/04/12 02:29:22;;;;;;;11.98;5.88;;;6.30;99.90;;;;;;5009619;28;20077;-83
2022/04/12 02:31:47;;;;;;;13.67;6.30;;;6.30;99.90;;;;;;5031416;28;20079;-85
2022/04/12 02:34:13;;;;;;;9.43;6.47;;;6.30;99.90;;;;;;5028493;28;20045;-84
2022/04/12 02:36:39;;;;;;;13.70;6.73;;;6.30;99.90;;;;;;5030369;28;20033;-85
2022/04/12 02:39:05;;;;;;;10.93;5.90;;;6.30;99.90;;;;;;5013858;28;20052;-85
2022/04/12 02:41:31;;;;;;;10.18;6.65;;;6.20;99.90;;;;;;5013677;28;20029;-87
2022/04/12 02:43:57;;;;;;;13.50;6.15;;;6.20;99.90;;;;;;5013402;28;20055;-89
2022/04/12 02:46:22;;;;;;;14.03;7.00;;;6.20;99.90;;;;;;5023438;28;20247;-87
2022/04/12 02:48:50;;;;;;;10.50;6.27;;;6.20;99.90;;;;;;5025284;28;20037;-85
2022/04/12 02:51:16;;;;;;;10.77;5.55;;;6.20;99.90;;;;;;5006524;28;20075;-87
2022/04/12 02:53:41;;;;;;;10.90;5.70;;;6.20;99.90;;;;;;5011978;28;20471;-88
2022/04/12 02:56:07;;;;;;;12.10;6.80;;;6.20;99.90;;;;;;5012591;28;20051;-87
2022/04/12 02:58:33;;;;;;;13.27;6.28;;;6.20;99.90;;;;;;5013780;28;20461;-86
2022/04/12 03:00:59;;;;;;;18.70;6.50;;;6.20;99.90;;;;;;5015735;28;20467;-88
2022/04/12 03:03:25;;;;;;;11.67;6.53;;;6.10;99.90;;;;;;5016981;28;20132;-85
2022/04/12 03:05:50;;;;;;;10.98;6.88;;;6.20;99.90;;;;;;5018357;28;20048;-87
2022/04/12 03:08:16;;;;;;;11.63;6.90;;;6.20;99.90;;;;;;5016237;28;20736;-86
2022/04/12 03:10:42;;;;;;;10.07;6.40;;;6.20;99.90;;;;;;5013494;28;20491;-86
2022/04/12 03:13:08;;;;;;;13.33;6.90;;;6.20;99.90;;;;;;5016164;28;20041;-84
2022/04/12 03:15:33;;;;;;;10.53;6.33;;;6.10;99.90;;;;;;5034967;28;20040;-85
2022/04/12 03:17:59;;;;;;;15.17;7.03;;;6.00;99.90;;;;;;5033665;28;20045;-86
2022/04/12 03:20:25;;;;;;;15.30;8.07;;;6.10;99.90;;;;;;5021403;28;20048;-83
2022/04/12 03:22:51;;;;;;;12.47;7.37;;;6.10;99.90;;;;;;5019224;28;20055;-86
2022/04/12 03:25:17;;;;;;;12.20;7.17;;;6.10;99.90;;;;;;5027294;28;20147;-84
2022/04/12 03:27:42;;;;;;;14.67;7.43;;;6.20;99.90;;;;;;5020022;28;20306;-86
2022/04/12 03:30:08;;;;;;;11.47;6.23;;;6.00;99.90;;;;;;5014674;28;20495;-85
2022/04/12 03:32:34;;;;;;;11.30;6.07;;;6.20;99.90;;;;;;5020825;28;20303;-83
2022/04/12 03:35:00;;;;;;;12.68;6.97;;;6.20;99.90;;;;;;5036576;28;20574;-85
2022/04/12 03:37:26;;;;;;;10.00;5.87;;;6.20;99.90;;;;;;5020291;28;20036;-85
2022/04/12 03:39:55;;;;;;;12.37;6.60;;;6.10;99.90;;;;;;5034558;28;20304;-86
2022/04/12 03:42:21;;;;;;;12.98;6.97;;;6.10;99.90;;;;;;5019242;28;20044;-85
2022/04/12 03:44:47;;;;;;;14.20;7.13;;;6.10;99.90;;;;;;5019185;28;20041;-86
2022/04/12 03:47:13;;;;;;;12.27;6.87;;;6.10;99.90;;;;;;5035277;28;20358;-85
2022/04/12 03:49:39;;;;;;;13.45;7.25;;;6.10;99.90;;;;;;5022189;28;20044;-84
2022/04/12 03:52:05;;;;;;;14.83;6.90;;;6.10;99.90;;;;;;5008877;28;20104;-85
2022/04/12 03:54:31;;;;;;;12.75;6.50;;;6.10;99.90;;;;;;5016088;28;20527;-85
2022/04/12 03:56:57;;;;;;;10.77;6.53;;;6.10;99.90;;;;;;5015910;28;20041;-83
2022/04/12 03:59:23;;;;;;;10.23;6.83;;;6.10;99.90;;;;;;5023041;28;20041;-85
2022/04/12 04:01:50;;;;;;;12.02;6.97;;;6.00;99.90;;;;;;5033252;28;20064;-88
2022/04/12 04:04:19;;;;;;;17.67;7.70;;;6.10;99.90;;;;;;5018694;28;20494;-86
2022/04/12 04:06:44;;;;;;;14.73;7.00;;;6.10;99.90;;;;;;5016667;28;20167;-85
2022/04/12 04:09:10;;;;;;;11.93;7.00;;;6.00;99.90;;;;;;5013820;28;20104;-85
2022/04/12 04:11:39;;;;;;;13.77;6.87;;;6.00;99.90;;;;;;5016306;28;20520;-86
2022/04/12 04:14:06;;;;;;;16.48;7.10;;;6.00;99.90;;;;;;5031658;28;20044;-86
2022/04/12 04:16:32;;;;;;;15.57;7.18;;;6.00;99.90;;;;;;5014633;28;20100;-86
2022/04/12 04:18:58;;;;;;;11.57;6.60;;;6.00;99.90;;;;;;5014650;28;20048;-85
2022/04/12 04:21:24;;;;;;;13.20;7.07;;;6.00;99.90;;;;;;5020062;28;20079;-86
2022/04/12 04:23:49;;;;;;;10.70;6.38;;;6.00;99.90;;;;;;5013461;28;20790;-85
2022/04/12 04:26:15;;;;;;;13.00;7.23;;;6.00;99.90;;;;;;5015694;28;20049;-85
2022/04/12 04:28:44;;;;;;;14.57;7.50;;;6.00;99.90;;;;;;5019594;28;20032;-87
2022/04/12 04:31:09;;;;;;;15.82;7.25;;;6.00;99.90;;;;;;5013831;28;20055;-86
2022/04/12 04:33:35;;;;;;;13.17;7.50;;;5.90;99.90;;;;;;5035590;28;20816;-85
2022/04/12 04:36:01;;;;;;;13.25;7.28;;;5.90;99.90;;;;;;5019174;28;20073;-85
2022/04/12 04:38:27;;;;;;;14.48;7.38;;;6.00;99.90;;;;;;5019889;28;20048;-86
2022/04/12 04:40:52;;;;;;;15.93;7.47;;;5.90;99.90;;;;;;5014527;28;20071;-85
2022/04/12 04:43:18;;;;;;;12.07;7.33;;;5.90;99.90;;;;;;5013319;28;20041;-87
2022/04/12 04:45:44;;;;;;;11.50;7.60;;;5.90;99.90;;;;;;5029795;28;20355;-87
2022/04/12 04:48:10;;;;;;;13.90;6.80;;;5.90;99.90;;;;;;5014320;28;20044;-85
2022/04/12 04:50:36;;;;;;;14.70;6.80;;;5.90;99.90;;;;;;5016528;28;20074;-87
2022/04/12 04:53:04;;;;;;;13.80;7.67;;;5.90;99.90;;;;;;5013098;28;20041;-86
2022/04/12 04:55:31;;;;;;;14.27;7.53;;;5.90;99.90;;;;;;5039202;28;20291;-86
2022/04/12 04:57:58;;;;;;;14.52;7.70;;;5.90;99.90;;;;;;5031445;28;20107;-86
2022/04/12 05:00:25;;;;;;;14.02;7.13;;;6.00;99.90;;;;;;5015210;28;20878;-85
2022/04/12 05:02:53;;;;;;;13.93;6.68;;;5.90;99.90;;;;;;5015707;28;20576;-85
2022/04/12 05:05:20;;;;;;;12.45;7.43;;;5.90;99.90;;;;;;5031295;28;20053;-86
2022/04/12 05:07:49;;;;;;;13.43;8.00;;;5.90;99.90;;;;;;5025404;28;20438;-85
2022/04/12 05:10:17;;;;;;;13.50;7.57;;;6.00;99.90;;;;;;5017226;28;20509;-88
2022/04/12 05:12:43;;;;;;;16.83;8.32;;;6.00;99.90;;;;;;5013823;28;20045;-85
2022/04/12 05:15:09;;;;;;;12.97;7.27;;;6.10;99.90;;;;;;5015036;28;20468;-84
2022/04/12 05:17:35;;;;;;;15.73;8.00;;;6.10;99.90;;;;;;5034584;28;20033;-84
2022/04/12 05:20:01;;;;;;;11.97;7.40;;;6.10;99.90;;;;;;5012135;28;20090;-85
2022/04/12 05:22:31;;;;;;;16.25;8.52;;;6.20;99.90;;;;;;5013762;28;20029;-86
2022/04/12 05:24:56;;;;;;;13.65;7.38;;;6.30;99.90;;;;;;5021022;28;20084;-84
2022/04/12 05:27:22;;;;;;;16.37;7.50;;;6.20;99.90;;;;;;5029396;28;20491;-84
2022/04/12 05:29:48;;;;;;;13.57;7.63;;;6.30;99.90;;;;;;5032061;28;20056;-84
2022/04/12 05:32:14;;;;;;;14.30;7.18;;;6.30;99.90;;;;;;5015504;28;20045;-85
2022/04/12 05:34:41;;;;;;;14.10;6.80;;;6.40;99.90;;;;;;5014216;28;20032;-85
2022/04/12 05:37:07;;;;;;;14.20;7.03;;;6.40;99.90;;;;;;5018080;28;20041;-83
2022/04/12 05:39:33;;;;;;;13.32;7.65;;;6.40;99.90;;;;;;5017091;28;20044;-85
2022/04/12 05:42:01;;;;;;;11.82;6.97;;;6.40;99.90;;;;;;5006163;28;20456;-85
2022/04/12 05:44:28;;;;;;;12.00;6.43;;;6.50;99.90;;;;;;5030490;28;20044;-84
2022/04/12 05:46:54;;;;;;;14.95;7.13;;;6.50;99.90;;;;;;5015495;28;20041;-84
2022/04/12 05:49:19;;;;;;;13.07;7.35;;;6.60;99.90;;;;;;5028590;28;20110;-86
2022/04/12 05:51:45;;;;;;;12.47;7.40;;;6.60;99.90;;;;;;5007078;28;20048;-86
2022/04/12 05:54:11;;;;;;;11.97;7.33;;;6.70;99.90;;;;;;5025342;28;20484;-87
2022/04/12 05:56:55;;;;;;;16.60;8.07;;;6.70;99.90;;;;;;5041023;28;20047;-89
2022/04/12 05:59:22;;;;;;;12.30;7.30;;;6.80;99.90;;;;;;5008723;28;20037;-86
2022/04/12 06:01:48;;;;;;;13.48;7.88;;;6.80;99.90;;;;;;5008631;28;20772;-85
2022/04/12 06:04:14;;;;;;;14.65;7.88;;;6.80;99.90;;;;;;5016182;28;20032;-86
2022/04/12 06:06:41;;;;;;;15.90;7.00;;;6.90;99.90;;;;;;5017739;28;20483;-85
2022/04/12 06:09:07;;;;;;;;;;;7.00;99.90;;;;;;5012057;28;20118;-86
2022/04/12 06:11:32;;;;;;;13.90;7.68;;;7.00;99.90;;;;;;5020259;28;19959;-86
2022/04/12 06:13:58;;;;;;;13.00;7.30;;;7.10;99.90;;;;;;5022155;28;20041;-84
2022/04/12 06:16:24;;;;;;;17.00;6.63;;;7.20;99.90;;;;;;5026083;28;20048;-85
2022/04/12 06:18:49;;;;;;;12.40;7.20;;;7.30;99.90;;;;;;5009195;28;20159;-86
2022/04/12 06:21:19;;;;;;;14.40;7.03;;;7.30;99.90;;;;;;5008061;28;20044;-85
2022/04/12 06:23:44;;;;;;;13.32;8.18;;;7.40;99.90;;;;;;5008496;28;20360;-86
2022/04/12 06:26:10;;;;;;;13.03;6.67;;;7.40;99.90;;;;;;5009506;28;20075;-82
2022/04/12 06:28:36;;;;;;;12.80;7.20;;;7.40;99.90;;;;;;5009488;28;20410;-86
2022/04/12 06:31:01;;;;;;;14.68;6.75;;;7.50;99.90;;;;;;5024807;28;20037;-85
2022/04/12 06:33:27;;;;;;;11.70;6.97;;;7.50;99.90;;;;;;5007848;28;20566;-86
2022/04/12 06:35:53;;;;;;;16.88;8.13;;;7.60;99.90;;;;;;5002737;28;20480;-86
2022/04/12 06:38:19;;;;;;;16.17;8.55;;;7.60;99.90;;;;;;5008916;28;20323;-84
2022/04/12 06:40:45;;;;;;;13.77;7.10;;;7.70;99.90;;;;;;5008377;28;20075;-86
2022/04/12 06:43:12;;;;;;;16.75;7.45;;;7.70;99.90;;;;;;5021271;28;20091;-85
2022/04/12 06:45:38;;;;;;;13.77;6.82;;;7.70;99.90;;;;;;5005658;28;20047;-87
2022/04/12 06:48:04;;;;;;;12.02;7.20;;;7.70;99.90;;;;;;5012912;28;20415;-85
2022/04/12 06:50:30;;;;;;;13.18;7.70;;;7.80;99.90;;;;;;5004917;28;20526;-83
2022/04/12 06:52:57;;;;;;;13.35;7.43;;;7.80;99.90;;;;;;5020354;28;20045;-85
2022/04/12 06:55:24;;;;;;;14.13;7.38;;;7.80;99.90;;;;;;5007934;28;20040;-85
2022/04/12 06:57:50;;;;;;;12.00;7.00;;;7.80;99.90;;;;;;5006462;28;20051;-84
2022/04/12 07:00:19;;;;;;;11.90;7.00;;;7.80;99.90;;;;;;5002903;28;20430;-85
2022/04/12 07:02:46;;;;;;;14.00;8.05;;;7.90;99.90;;;;;;5006668;28;20047;-84
2022/04/12 07:05:12;;;;;;;14.73;7.57;;;7.90;99.90;;;;;;5024398;28;20228;-84
2022/04/12 07:07:39;;;;;;;16.52;7.72;;;7.90;99.90;;;;;;5009534;28;20474;-85
2022/04/12 07:10:08;;;;;;;16.20;7.68;;;7.90;99.90;;;;;;5006766;28;20055;-85
2022/04/12 07:12:34;;;;;;;13.65;7.65;;;8.00;99.90;;;;;;5022453;28;20634;-81
2022/04/12 07:14:59;;;;;;;13.33;6.77;;;8.00;99.90;;;;;;5004967;28;20043;-89
2022/04/12 07:17:25;;;;;;;11.73;6.93;;;8.00;99.90;;;;;;5021120;28;20073;-81
2022/04/12 07:19:51;;;;;;;12.87;7.33;;;8.10;99.90;;;;;;5012188;28;20045;-85
2022/04/12 07:22:16;;;;;;;15.40;8.43;;;8.10;99.90;;;;;;5010184;28;20084;-83
2022/04/12 07:24:42;;;;;;;12.50;7.17;;;8.20;99.90;;;;;;5038723;28;20124;-84
2022/04/12 07:27:08;;;;;;;12.73;6.97;;;8.20;99.90;;;;;;5039367;28;20098;-85
2022/04/12 07:29:34;;;;;;;12.87;7.27;;;8.30;99.90;;;;;;5015735;28;20040;-86
2022/04/12 07:32:00;;;;;;;13.10;7.05;;;8.40;99.90;;;;;;5016732;28;20045;-85
2022/04/12 07:34:26;;;;;;;14.25;7.30;;;8.40;99.90;;;;;;5020688;28;20036;-83
2022/04/12 07:36:54;;;;;;;11.50;6.60;;;8.50;99.90;;;;;;5020731;28;20049;-84
2022/04/12 07:39:21;;;;;;;13.05;7.05;;;8.60;99.90;;;;;;5020494;28;20427;-85
2022/04/12 07:41:47;;;;;;;17.67;6.35;;;8.70;99.90;;;;;;5020798;28;20096;-84
2022/04/12 07:46:41;;;;;;;15.68;8.35;;;8.80;99.90;;;;;;5021779;28;20104;-69
2022/04/12 07:49:06;;;;;;;13.88;7.38;;;9.00;99.90;;;;;;5004294;28;20474;-72
2022/04/12 07:51:32;;;;;;;13.83;7.27;;;9.10;99.90;;;;;;5004385;28;20029;-71
2022/04/12 07:54:01;;;;;;;18.50;8.70;;;9.20;99.90;;;;;;4993838;28;20045;-69
2022/04/12 07:56:29;;;;;;;12.05;6.75;;;9.30;99.90;;;;;;5027657;28;20225;-71
2022/04/12 07:58:55;;;;;;;13.30;6.80;;;9.40;99.90;;;;;;5027860;28;20037;-70
2022/04/12 08:01:21;;;;;;;13.17;6.67;;;9.50;99.90;;;;;;5028731;28;20091;-70
2022/04/12 08:03:47;;;;;;;14.67;6.47;;;9.60;99.90;;;;;;5027288;28;20410;-72
2022/04/12 08:06:13;;;;;;;15.50;7.15;;;9.70;99.90;;;;;;5010368;28;20443;-68
2022/04/12 08:08:39;;;;;;;13.82;6.70;;;9.80;99.90;;;;;;5020926;28;20406;-69
2022/04/12 08:11:05;;;;;;;10.80;6.13;;;10.00;99.90;;;;;;5003088;28;20037;-65
2022/04/12 08:13:32;;;;;;;11.23;6.43;;;10.10;99.80;;;;;;5014187;28;20113;-66
2022/04/12 08:15:57;;;;;;;;;;;10.20;99.80;;;;;;5024366;28;20131;-68
2022/04/12 08:18:23;;;;;;;10.45;6.18;;;10.30;99.60;;;;;;5009587;28;19979;-65
2022/04/12 08:20:54;;;;;;;12.35;6.05;;;10.50;98.40;;;;;;5016344;28;20326;-66
2022/04/12 08:23:24;;;;;;;11.50;6.43;;;10.60;97.50;;;;;;5022380;28;20048;-66
2022/04/12 08:25:50;;;;;;;10.98;5.90;;;10.70;94.60;;;;;;5023290;28;20056;-65
2022/04/12 08:28:16;;;;;;;12.52;6.10;;;10.90;94.70;;;;;;5023762;28;20052;-65
2022/04/12 08:30:42;;;;;;;10.80;5.87;;;11.10;93.70;;;;;;5025494;28;20041;-66
2022/04/12 08:33:08;;;;;;;11.52;6.50;;;11.20;92.70;;;;;;5026025;28;20109;-71
2022/04/12 08:35:34;;;;;;;11.85;6.45;;;11.30;93.20;;;;;;5009054;28;20046;-67
2022/04/12 08:38:00;;;;;;;13.30;7.05;;;11.40;92.50;;;;;;5024913;28;20048;-66
2022/04/12 08:40:26;;;;;;;12.60;6.43;;;11.40;92.10;;;;;;5017832;28;20042;-66
2022/04/12 08:42:53;;;;;;;14.13;6.50;;;11.60;92.70;;;;;;5007396;28;20045;-65
2022/04/12 08:45:19;;;;;;;10.02;6.25;;;11.60;93.10;;;;;;5020182;28;20041;-66
2022/04/12 08:47:44;;;;;;;10.83;6.23;;;11.70;92.60;;;;;;5020132;28;20569;-66
2022/04/12 08:50:11;;;;;;;10.43;6.90;;;11.80;92.00;;;;;;5018388;28;20417;-66
2022/04/12 08:52:37;;;;;;;;;;;11.90;91.50;;;;;;4999836;28;20104;-65
2022/04/12 08:55:04;;;;;;;10.65;6.35;;;12.00;90.80;;;;;;5019593;28;19928;-66
2022/04/12 08:57:30;;;;;;;12.45;6.20;;;12.10;91.50;;;;;;5013832;28;20077;-66
2022/04/12 08:59:55;;;;;;;11.07;6.87;;;12.20;90.90;;;;;;5003153;28;20076;-66
2022/04/12 09:02:23;;;;;;;12.98;5.53;;;12.30;90.70;;;;;;4998136;28;20167;-66
2022/04/12 09:04:48;;;;;;;10.43;6.50;;;12.30;90.50;;;;;;5002482;28;20042;-66
2022/04/12 09:07:14;;;;;;;12.77;7.38;;;12.40;89.70;;;;;;4997406;28;20063;-66
2022/04/12 09:09:42;;;;;;;10.77;6.53;;;12.50;89.80;;;;;;5017943;28;20033;-66
2022/04/12 09:12:13;;;;;;;13.77;6.50;;;12.60;88.40;;;;;;5020654;28;20080;-66
2022/04/12 09:14:41;;;;;;;10.60;6.13;;;12.80;86.30;;;;;;4996161;28;20572;-65
2022/04/12 09:17:09;;;;;;;8.93;5.35;;;13.00;85.60;;;;;;5020378;28;20102;-66
2022/04/12 09:19:41;;;;;;;16.02;5.82;;;13.10;84.60;;;;;;4998848;28;20037;-66
2022/04/12 09:22:26;;;;;;;13.20;5.90;;;13.30;82.80;;;;;;5021057;28;20040;-65
2022/04/12 09:24:54;;;;;;;10.75;5.72;;;13.50;79.40;;;;;;5020392;28;20041;-66
2022/04/12 09:27:22;;;;;;;11.13;6.53;;;13.60;77.30;;;;;;5004660;28;20045;-66
2022/04/12 09:29:56;;;;;;;12.70;5.57;;;13.80;76.30;;;;;;5020474;28;20061;-66
2022/04/12 09:32:24;;;;;;;12.13;5.88;;;13.90;75.50;;;;;;5018969;28;20489;-66
2022/04/12 09:34:50;;;;;;;11.00;6.40;;;14.00;73.40;;;;;;5024841;28;20038;-66
2022/04/12 09:37:25;;;;;;;10.90;5.75;;;14.10;73.90;;;;;;5029209;28;20034;-66
2022/04/12 09:40:00;;;;;;;9.30;5.57;;;14.20;72.60;;;;;;5021022;28;20041;-66
2022/04/12 09:42:48;;;;;;;11.18;5.95;;;14.40;73.10;;;;;;5022826;28;20132;-66
2022/04/12 09:45:33;;;;;;;9.30;5.55;;;14.50;71.60;;;;;;5022905;28;20044;-66
2022/04/12 09:48:05;;;;;;;12.20;5.22;;;14.60;72.90;;;;;;5025373;28;20057;-66
2022/04/12 09:50:32;;;;;;;9.90;5.88;;;14.70;71.90;;;;;;5025614;28;20043;-66
2022/04/12 09:53:00;;;;;;;15.05;6.05;;;14.80;71.20;;;;;;5019836;28;20045;-66
2022/04/12 09:55:35;;;;;;;11.43;5.32;;;15.00;69.70;;;;;;5024139;28;20442;-66
2022/04/12 09:58:02;;;;;;;12.10;5.88;;;15.10;69.20;;;;;;5024511;28;20069;-66
2022/04/12 10:00:31;;;;;;;10.55;6.30;;;15.20;68.40;;;;;;5019629;28;20116;-66
2022/04/12 10:03:01;;;;;;;10.63;6.80;;;15.40;67.20;;;;;;5022555;28;20614;-66
2022/04/12 10:05:28;;;;;;;11.38;6.07;;;15.50;66.00;;;;;;5025339;28;20041;-66
2022/04/12 10:07:58;;;;;;;10.05;5.85;;;15.60;64.80;;;;;;5024528;28;20045;-66
2022/04/12 10:10:28;;;;;;;11.63;5.82;;;15.80;64.30;;;;;;5019021;28;20052;-65
2022/04/12 10:12:55;;;;;;;11.07;5.75;;;15.90;63.80;;;;;;5020884;28;20547;-66
2022/04/12 10:15:22;;;;;;;10.35;6.00;;;16.10;64.00;;;;;;5010306;28;20465;-66
2022/04/12 10:17:52;;;;;;;9.55;5.53;;;16.20;63.90;;;;;;5020172;28;20045;-66
2022/04/12 10:20:19;;;;;;;11.18;5.43;;;16.30;62.40;;;;;;5012322;28;20033;-66
2022/04/12 10:22:45;;;;;;;;;;;16.50;62.40;;;;;;5013293;28;20118;-65
2022/04/12 10:25:14;;;;;;;8.63;5.38;;;16.50;59.40;;;;;;5026851;28;19917;-66
2022/04/12 10:27:40;;;;;;;10.52;5.32;;;16.60;61.50;;;;;;5020764;28;20235;-66
2022/04/12 10:30:17;;;;;;;10.98;5.43;;;16.70;61.70;;;;;;5015465;28;20033;-66
2022/04/12 10:33:02;;;;;;;9.43;5.13;;;16.90;59.80;;;;;;5004786;28;20461;-66
2022/04/12 10:35:29;;;;;;;12.38;6.18;;;17.00;59.80;;;;;;5020428;28;20358;-66
2022/04/12 10:37:59;;;;;;;9.55;5.47;;;17.10;59.60;;;;;;5021608;28;20453;-66
2022/04/12 10:40:28;;;;;;;10.38;6.30;;;17.20;59.10;;;;;;5023776;28;20061;-66
2022/04/12 10:42:55;;;;;;;10.27;5.55;;;17.30;59.50;;;;;;5022409;28;20061;-66
2022/04/12 10:45:32;;;;;;;8.23;5.05;;;17.30;58.30;;;;;;5022120;28;20045;-66
2022/04/12 10:48:00;;;;;;;13.68;6.75;;;17.40;58.00;;;;;;5021441;28;20045;-66
2022/04/12 10:50:26;;;;;;;9.63;5.30;;;17.50;58.20;;;;;;5010702;28;20045;-66
2022/04/12 10:52:51;;;;;;;9.65;5.25;;;17.50;57.90;;;;;;5020310;28;20032;-66
2022/04/12 10:55:20;;;;;;;9.45;5.03;;;17.60;57.20;;;;;;5023907;28;20045;-66
2022/04/12 10:57:46;;;;;;;11.63;5.40;;;17.70;57.90;;;;;;5022069;28;20346;-66
2022/04/12 11:00:19;;;;;;;9.77;5.85;;;17.70;57.30;;;;;;5023110;28;20458;-66
2022/04/12 11:02:52;;;;;;;11.40;5.75;;;17.90;57.50;;;;;;5024019;28;20405;-66
2022/04/12 11:05:36;;;;;;;8.23;5.10;;;18.00;57.20;;;;;;5019366;28;20115;-66
2022/04/12 11:08:28;;;;;;;10.95;5.80;;;18.20;56.80;;;;;;5010917;28;20038;-66
2022/04/12 11:10:55;;;;;;;8.10;5.30;;;18.20;56.80;;;;;;5003784;28;20041;-66
2022/04/12 11:13:22;;;;;;;8.40;5.05;;;18.30;56.70;;;;;;5012791;28;20431;-66
2022/04/12 11:15:55;;;;;;;10.10;5.78;;;18.40;56.00;;;;;;5006645;28;20045;-66
2022/04/12 11:18:21;;;;;;;9.25;5.18;;;18.40;55.90;;;;;;5026092;28;20196;-66
2022/04/12 11:21:00;;;;;;;9.20;5.93;;;18.50;56.10;;;;;;5010479;28;20439;-66
2022/04/12 11:23:49;;;;;;;11.63;5.70;;;18.50;55.90;;;;;;5014491;28;20038;-66
2022/04/12 11:26:36;;;;;;;11.23;6.32;;;18.60;56.30;;;;;;5022693;28;20494;-66
2022/04/12 11:29:07;;;;;;;7.22;4.95;;;18.60;55.70;;;;;;5015329;28;20041;-66
2022/04/12 11:31:36;;;;;;;10.95;5.75;;;18.60;56.80;;;;;;5025213;28;20045;-66
2022/04/12 11:34:02;;;;;;;12.73;5.60;;;18.80;56.50;;;;;;5021919;28;20060;-66
2022/04/12 11:36:28;;;;;;;10.18;5.57;;;18.70;57.00;;;;;;5004735;28;20033;-66
2022/04/12 11:38:55;;;;;;;;;;;18.70;56.50;;;;;;4999119;28;20063;-66
2022/04/12 11:41:21;;;;;;;11.07;5.43;;;18.70;56.10;;;;;;5021142;28;19979;-66
2022/04/12 11:43:46;;;;;;;8.55;4.90;;;18.70;57.20;;;;;;5016967;28;20065;-66
2022/04/12 11:46:17;;;;;;;8.30;5.28;;;18.80;57.30;;;;;;5022492;28;20183;-67
2022/04/12 11:48:43;;;;;;;8.65;5.25;;;18.90;57.20;;;;;;5022741;28;20140;-67
2022/04/12 11:51:09;;;;;;;10.82;5.70;;;18.90;56.70;;;;;;5012476;28;20143;-67
2022/04/12 11:53:47;;;;;;;8.88;5.00;;;18.90;56.30;;;;;;5004092;28;20548;-66
2022/04/12 11:56:12;;;;;;;9.50;4.90;;;19.00;56.30;;;;;;5022430;28;20112;-66
2022/04/12 11:58:38;;;;;;;12.70;5.53;;;19.10;56.60;;;;;;5023894;28;20445;-66
2022/04/12 12:01:04;;;;;;;10.48;6.03;;;19.10;55.80;;;;;;5006857;28;20047;-66
2022/04/12 12:03:31;;;;;;;9.90;6.38;;;19.10;55.60;;;;;;5021787;28;20509;-66
2022/04/12 12:05:57;;;;;;;9.20;4.80;;;19.20;55.60;;;;;;5022975;28;20046;-66
2022/04/12 12:08:23;;;;;;;10.30;5.53;;;19.20;55.60;;;;;;5019715;28;20038;-65
2022/04/12 12:10:52;;;;;;;10.55;5.25;;;19.20;55.10;;;;;;5024719;28;20493;-66
2022/04/12 12:13:23;;;;;;;8.93;5.47;;;19.30;54.70;;;;;;5020700;28;20458;-67
2022/04/12 12:15:48;;;;;;;8.75;5.28;;;19.30;54.40;;;;;;5003302;28;20033;-66
2022/04/12 12:18:18;;;;;;;8.60;5.35;;;19.30;54.90;;;;;;5025234;28;20493;-66
2022/04/12 12:20:45;;;;;;;12.15;5.68;;;19.30;54.60;;;;;;5017067;28;20398;-66
2022/04/12 12:23:11;;;;;;;13.25;5.20;;;19.20;54.90;;;;;;5027175;28;20061;-66
2022/04/12 12:25:47;;;;;;;11.18;5.18;;;19.30;55.20;;;;;;5021382;28;20104;-66
2022/04/12 12:28:22;;;;;;;8.63;5.38;;;19.30;55.70;;;;;;5000686;28;20049;-66
2022/04/12 12:31:05;;;;;;;9.27;5.35;;;19.40;55.70;;;;;;5014739;28;20496;-66
2022/04/12 12:33:43;;;;;;;9.40;5.65;;;19.40;55.40;;;;;;5011751;28;20475;-66
2022/04/12 12:36:19;;;;;;;10.30;5.57;;;19.50;55.70;;;;;;5016618;28;20112;-66
2022/04/12 12:38:45;;;;;;;11.60;6.18;;;19.50;54.80;;;;;;5005528;28;20034;-66
2022/04/12 12:41:11;;;;;;;11.48;6.05;;;19.60;55.80;;;;;;5024803;28;20084;-66
2022/04/12 12:43:37;;;;;;;10.65;5.82;;;19.60;55.10;;;;;;5018415;28;20068;-66
2022/04/12 12:46:06;;;;;;;9.52;5.47;;;19.60;55.20;;;;;;5024549;28;20495;-66
2022/04/12 12:48:32;;;;;;;10.00;6.20;;;19.60;55.70;;;;;;5007006;28;20033;-66
2022/04/12 12:51:04;;;;;;;10.45;5.50;;;19.60;56.00;;;;;;5007592;28;20033;-66